Grand Junction, CO

1:24 PM MDT on August 27, 2015 (GMT -0600)
Chipeta Ave south of Washington Park | | Change Station
CLOSE
Current Station
Personal Weather Station
Location: Grand Junction, CO
Elevation: 4603 ft
Nearby Weather Stations

Elev 4603 ft 39.07 °N, 108.56 °W | Updated 19 seconds ago

Partly Cloudy
Partly Cloudy
77.9 °F
Feels Like 80 °F
N
0.0
Wind Variable Wind from WNW
Gusts 4.0 mph

Today
High -- | Low -- °F
--% Chance of Precip.
Yesterday
High -- | Low -- °F
Precip. -- in
6:38 AM 7:52 PM
Waxing Gibbous, 94% visible
Pressure 30.07 in
Visibility 10.0 miles
Clouds Few 2700 ft
Scattered Clouds 8000 ft
Heat Index 80 °F
Dew Point 62 °F
Humidity 59%
Rainfall 0.25 in
Snow Depth Not available.
UV 8 out of 12
Pollen 6.40 out of 12
Air Quality Not available.
Flu Activity Not available.
METAR KGJT 271853Z 00000KT 10SM FEW027 SCT080 23/17 A3024 RMK AO2 SLP182 T02330167
Pressure 30.07 in
Visibility 10.0 miles
Clouds Few 2700 ft
Scattered Clouds 8000 ft
Heat Index 80 °F
Dew Point 62 °F
Humidity 59%
Rainfall 0.25 in
Snow Depth Not available.
UV 8 out of 12
Pollen 6.40 out of 12
Air Quality Not available.
Flu Activity Not available.
METAR KGJT 271853Z 00000KT 10SM FEW027 SCT080 23/17 A3024 RMK AO2 SLP182 T02330167

10-Day Weather Forecast

×

Almanac

Astronomy

Aug. 27, 2015 Rise Set
Actual Time
Civil Twilight
Nautical Twilight
Astronomical Twilight
Moon
Length of Visible Light
Length of Day
Tomorrow will be .
, % of the Moon is Illuminated

Today's Extremes

State Highs State Lows

Community

WunderPhotos

Upload Photos

1,850,195 photos uploaded!

WunderBlogs® & News

Nearby

Air Quality

  Air Quality AQ Index Pollutant
Not available.

Snow Depth

Station Depth Elevation

Earthquake Activity

City Distance Mag. Time & Date
Minimum magnitude displayed is 2.5.

Coastal Water Temperatures

Place Temperature

Stations

Nearby Weather Stations

Station Location Temp. Windchill Dew Point Humidity Wind Precip. Elev Updated Type